Petange, Luxembourg
Current Conditions -  °F | °C
As of 5:20 AM on Friday 28 Nov 2014 (Local Time) from ELLX Reporting Station
Haze Haze  
Wind Chill: 33°   Ceiling: Unl
Heat Index: 39°   Visibility: 1.2mi
Dew Point: 39°   Wind: 9mph
Humidity: 100%   Direction: 60°ENE
Pressure: 29.71"   Gusts: NA
Location:  49.56°N, 5.88°E
Report Text: ELLX 280420Z 06008KT 2000 BR SCT001 SCT070 04/04 Q1006 NOSIG
Loading
Personal Weather Stations






























Interactive Weather Map New forecast layout! Learn more

10-Day Weather Forecast

Advertisements
Track Severe Weather on mobile